Auburn Township, Ohio
Current Conditions -  °F | °C
As of 2:37 PM on Tuesday 21 Oct 2014 (Local Time) from KPOV Reporting Station
Overcast Overcast  
Wind Chill: 45°   Ceiling: 1400
Heat Index: 48°   Visibility: 10mi
Dew Point: 48°   Wind: 8mph
Humidity: 100%   Direction: 330°NNW
Pressure: 29.94"   Gusts: NA
Location:  41.2966°N, 81.2269°W
Report Text: KPOV 211837Z AUTO 33007KT 10SM BKN014 BKN022 OVC027 09/09 A2994 RMK AO2 T00900091
Loading
Personal Weather Stations






























Interactive Weather Map
Tropical Storm Tracking
New forecast layout! Learn more

10-Day Weather Forecast

Advertisements
Track Severe Weather on mobile